| Date | Time | Temp. (oF) | Dew Point (oF) | Rel. Hum. (%) | Press. (in.) | Wind Dir. | Wind Speed (mph) | Hourly Rainfall (in.) |
|
|---|---|---|---|---|---|---|---|---|---|
| 1 | 12/11 | 00:00 | 39 | 36 | 90 | 29.84 | NNE | 0 | 0.00 |
| 2 | 12/10 | 23:00 | 39 | 36 | 89 | 29.85 | E | 0 | 0.00 |
| 3 | 12/10 | 22:00 | 40 | 37 | 89 | 29.87 | ESE | 0 | 0.00 |
| 4 | 12/10 | 21:00 | 42 | 38 | 87 | 29.88 | W | 0 | 0.00 |
| 5 | 12/10 | 20:00 | 44 | 39 | 85 | 29.89 | W | 0 | 0.00 |
| 6 | 12/10 | 19:00 | 46 | 41 | 83 | 29.88 | S | 0 | 0.00 |
| 7 | 12/10 | 18:00 | 47 | 41 | 82 | 29.88 | ENE | 0 | 0.00 |
| 8 | 12/10 | 17:00 | 50 | 42 | 75 | 29.88 | ESE | 0 | 0.00 |
| 9 | 12/10 | 16:00 | 53 | 42 | 68 | 29.86 | NNE | 0 | 0.00 |
| 10 | 12/10 | 15:00 | 55 | 43 | 66 | 29.86 | W | 0 | 0.00 |
| 11 | 12/10 | 14:00 | 53 | 46 | 79 | 29.88 | S | 2 | 0.00 |
| 12 | 12/10 | 13:00 | 48 | 44 | 89 | 29.90 | S | 4 | 0.00 |
| 13 | 12/10 | 12:00 | 46 | 42 | 89 | 29.93 | S | 0 | 0.00 |
| 14 | 12/10 | 11:00 | 44 | 40 | 89 | 29.95 | NE | 0 | 0.00 |
| 15 | 12/10 | 10:00 | 43 | 39 | 89 | 29.96 | SSW | 2 | 0.00 |
| 16 | 12/10 | 09:00 | 43 | 39 | 89 | 29.95 | NNW | 0 | 0.00 |
| 17 | 12/10 | 08:00 | 43 | 40 | 90 | 29.93 | NNE | 3 | 0.00 |
| 18 | 12/10 | 07:00 | 42 | 39 | 90 | 29.92 | SSW | 0 | 0.00 |
| 19 | 12/10 | 06:00 | 41 | 38 | 90 | 29.90 | WNW | 0 | 0.00 |
| 20 | 12/10 | 05:00 | 44 | 41 | 90 | 29.89 | SSW | 0 | 0.00 |
| 21 | 12/10 | 04:00 | 46 | 42 | 89 | 29.87 | SSW | 0 | 0.00 |
| 22 | 12/10 | 03:00 | 46 | 42 | 89 | 29.87 | ENE | 0 | 0.02 |
| 23 | 12/10 | 02:00 | 47 | 43 | 88 | 29.87 | SSW | 0 | 0.00 |
| 24 | 12/10 | 01:00 | 47 | 43 | 87 | 29.87 | S | 2 | 0.00 |